createdAt,value
2023-02-19T00:00:42.623Z,996.46
2023-02-19T00:01:42.606Z,996.45
2023-02-19T00:02:42.637Z,996.41
2023-02-19T00:03:42.923Z,996.40
2023-02-19T00:04:42.628Z,996.37
2023-02-19T00:05:42.571Z,996.35
2023-02-19T00:06:42.579Z,996.34
2023-02-19T00:07:42.542Z,996.34
2023-02-19T00:08:42.856Z,996.33
2023-02-19T00:09:42.526Z,996.32
2023-02-19T00:10:42.538Z,996.31
2023-02-19T00:11:42.554Z,996.31
2023-02-19T00:12:42.497Z,996.31
2023-02-19T00:13:42.731Z,996.30
2023-02-19T00:14:42.486Z,996.29
2023-02-19T00:15:42.482Z,996.33
2023-02-19T00:16:42.476Z,996.38
2023-02-19T00:17:42.445Z,996.39
2023-02-19T00:18:42.797Z,996.43
2023-02-19T00:19:42.439Z,996.44
2023-02-19T00:20:42.450Z,996.42
2023-02-19T00:21:42.412Z,996.36
2023-02-19T00:22:42.407Z,996.35
2023-02-19T00:23:42.580Z,996.36
2023-02-19T00:24:42.398Z,996.37
2023-02-19T00:25:42.372Z,996.36
2023-02-19T00:26:42.374Z,996.34
2023-02-19T00:27:42.346Z,996.30
2023-02-19T00:28:42.692Z,996.27
2023-02-19T00:29:42.343Z,996.25
2023-02-19T00:30:42.413Z,996.21
2023-02-19T00:31:42.450Z,996.18
2023-02-19T00:32:42.318Z,996.12
2023-02-19T00:33:42.538Z,996.11
2023-02-19T00:34:42.295Z,996.10
2023-02-19T00:35:42.283Z,996.08
2023-02-19T00:36:42.275Z,996.07
2023-02-19T00:37:42.277Z,996.05
2023-02-19T00:38:42.386Z,996.02
2023-02-19T00:39:42.262Z,995.98
2023-02-19T00:40:42.251Z,995.97
2023-02-19T00:41:42.240Z,995.95
2023-02-19T00:42:42.230Z,995.95
2023-02-19T00:43:42.468Z,995.90
2023-02-19T00:44:42.216Z,995.87
2023-02-19T00:45:42.193Z,995.88
2023-02-19T00:46:42.297Z,995.85
2023-02-19T00:47:42.173Z,995.85
2023-02-19T00:48:42.511Z,995.86
2023-02-19T00:49:42.155Z,995.85
2023-02-19T00:50:42.152Z,995.84
2023-02-19T00:51:42.134Z,995.83
2023-02-19T00:52:42.133Z,995.84
2023-02-19T00:53:42.391Z,995.84
2023-02-19T00:54:42.113Z,995.85
2023-02-19T00:55:42.112Z,995.85
2023-02-19T00:56:42.096Z,995.85
2023-02-19T00:57:42.091Z,995.85
2023-02-19T00:58:42.250Z,995.86
2023-02-19T00:59:42.070Z,995.84
2023-02-19T01:00:42.064Z,995.82
2023-02-19T01:01:42.101Z,995.82
2023-02-19T01:02:42.048Z,995.83
2023-02-19T01:03:42.306Z,995.81
2023-02-19T01:04:42.060Z,995.81
2023-02-19T01:05:42.027Z,995.83
2023-02-19T01:06:42.011Z,995.82
2023-02-19T01:07:42.003Z,995.80
2023-02-19T01:08:42.449Z,995.80
2023-02-19T01:09:41.980Z,995.79
2023-02-19T01:10:41.965Z,995.76
2023-02-19T01:11:41.945Z,995.78
2023-02-19T01:12:41.940Z,995.78
2023-02-19T01:13:42.334Z,995.79
2023-02-19T01:14:41.940Z,995.76
2023-02-19T01:15:42.074Z,995.74
2023-02-19T01:16:41.908Z,995.74
2023-02-19T01:17:41.887Z,995.74
2023-02-19T01:18:41.903Z,995.73
2023-02-19T01:19:41.898Z,995.70
2023-02-19T01:20:41.869Z,995.70
2023-02-19T01:21:41.882Z,995.70
2023-02-19T01:22:41.851Z,995.68
2023-02-19T01:23:42.033Z,995.65
2023-02-19T01:24:41.822Z,995.65
2023-02-19T01:25:41.817Z,995.66
2023-02-19T01:26:41.799Z,995.63
2023-02-19T01:27:41.799Z,995.61
2023-02-19T01:28:42.379Z,995.58
2023-02-19T01:29:41.779Z,995.58
2023-02-19T01:30:41.768Z,995.57
2023-02-19T01:31:41.874Z,995.60
2023-02-19T01:32:41.765Z,995.58
2023-02-19T01:33:42.226Z,995.56
2023-02-19T01:34:41.762Z,995.55
2023-02-19T01:35:41.741Z,995.54
2023-02-19T01:36:41.724Z,995.50
2023-02-19T01:37:41.704Z,995.47
2023-02-19T01:38:42.105Z,995.43
2023-02-19T01:39:41.703Z,995.40
2023-02-19T01:40:41.681Z,995.40
2023-02-19T01:41:41.673Z,995.38
2023-02-19T01:42:41.653Z,995.37
2023-02-19T01:43:41.786Z,995.41
2023-02-19T01:44:41.636Z,995.40
2023-02-19T01:45:41.656Z,995.42
2023-02-19T01:46:41.724Z,995.42
2023-02-19T01:47:41.618Z,995.41
2023-02-19T01:48:42.174Z,995.39
2023-02-19T01:49:41.596Z,995.36
2023-02-19T01:50:41.577Z,995.40
2023-02-19T01:51:41.608Z,995.41
2023-02-19T01:52:41.562Z,995.42
2023-02-19T01:53:41.803Z,995.44
2023-02-19T01:54:41.550Z,995.44
2023-02-19T01:55:41.546Z,995.42
2023-02-19T01:56:41.525Z,995.40
2023-02-19T01:57:41.515Z,995.40
2023-02-19T01:58:41.963Z,995.37
2023-02-19T01:59:41.532Z,995.38
2023-02-19T02:00:41.544Z,995.37
2023-02-19T02:01:41.535Z,995.35
2023-02-19T02:02:41.496Z,995.35
2023-02-19T02:03:42.199Z,995.34
2023-02-19T02:04:41.443Z,995.32
2023-02-19T02:05:41.441Z,995.31
2023-02-19T02:06:41.428Z,995.31
2023-02-19T02:07:41.421Z,995.29
2023-02-19T02:08:41.546Z,995.28
2023-02-19T02:09:41.399Z,995.27
2023-02-19T02:10:41.396Z,995.31
2023-02-19T02:11:41.390Z,995.29
2023-02-19T02:12:41.370Z,995.30
2023-02-19T02:13:41.362Z,995.30
2023-02-19T02:14:41.581Z,995.30
2023-02-19T02:15:41.347Z,995.29
2023-02-19T02:16:41.325Z,995.30
2023-02-19T02:17:41.332Z,995.28
2023-02-19T02:18:41.314Z,995.26
2023-02-19T02:19:41.311Z,995.23
2023-02-19T02:20:41.294Z,995.19
2023-02-19T02:21:41.294Z,995.20
2023-02-19T02:22:41.272Z,995.20
2023-02-19T02:23:41.281Z,995.21
2023-02-19T02:24:41.257Z,995.20
2023-02-19T02:25:41.252Z,995.19
2023-02-19T02:26:41.252Z,995.17
2023-02-19T02:27:41.239Z,995.15
2023-02-19T02:28:41.216Z,995.18
2023-02-19T02:29:41.229Z,995.14
2023-02-19T02:30:41.211Z,995.16
2023-02-19T02:31:41.395Z,995.16
2023-02-19T02:32:41.177Z,995.11
2023-02-19T02:33:41.169Z,995.13
2023-02-19T02:34:41.174Z,995.08
2023-02-19T02:35:41.171Z,995.06
2023-02-19T02:36:41.140Z,995.07
2023-02-19T02:37:41.169Z,995.05
2023-02-19T02:38:41.133Z,995.03
2023-02-19T02:39:41.116Z,995.07
2023-02-19T02:40:41.098Z,995.06
2023-02-19T02:41:41.102Z,995.06
2023-02-19T02:42:41.092Z,995.07
2023-02-19T02:43:41.080Z,995.06
2023-02-19T02:44:41.076Z,995.05
2023-02-19T02:45:41.169Z,995.06
2023-02-19T02:46:41.048Z,995.04
2023-02-19T02:47:41.034Z,995.05
2023-02-19T02:48:41.035Z,995.04
2023-02-19T02:49:41.023Z,995.03
2023-02-19T02:50:41.002Z,995.03
2023-02-19T02:51:41.031Z,995.01
2023-02-19T02:52:41.011Z,994.98
2023-02-19T02:53:40.991Z,995.01
2023-02-19T02:54:40.971Z,995.02
2023-02-19T02:55:40.965Z,994.99
2023-02-19T02:56:40.949Z,995.03
2023-02-19T02:57:40.940Z,995.03
2023-02-19T02:58:40.922Z,994.98
2023-02-19T02:59:41.635Z,995.01
2023-02-19T03:00:40.905Z,995.03
2023-02-19T03:01:40.931Z,995.01
2023-02-19T03:02:40.893Z,994.97
2023-02-19T03:03:40.887Z,994.97
2023-02-19T03:04:41.578Z,994.95
2023-02-19T03:05:40.860Z,994.99
2023-02-19T03:06:40.844Z,995.00
2023-02-19T03:07:40.843Z,994.97
2023-02-19T03:08:40.839Z,994.97
2023-02-19T03:09:41.607Z,994.93
2023-02-19T03:10:40.816Z,994.96
2023-02-19T03:11:40.802Z,994.92
2023-02-19T03:12:40.791Z,994.91
2023-02-19T03:13:40.793Z,994.90
2023-02-19T03:14:41.051Z,994.92
2023-02-19T03:15:40.769Z,994.91
2023-02-19T03:16:42.781Z,994.88
2023-02-19T03:17:40.750Z,994.85
2023-02-19T03:18:40.741Z,994.89
2023-02-19T03:19:41.597Z,994.95
2023-02-19T03:20:40.722Z,994.94
2023-02-19T03:21:40.710Z,994.91
2023-02-19T03:22:40.696Z,994.88
2023-02-19T03:23:40.694Z,994.88
2023-02-19T03:24:40.989Z,994.88
2023-02-19T03:25:40.677Z,994.88
2023-02-19T03:26:40.663Z,994.87
2023-02-19T03:27:40.661Z,994.87
2023-02-19T03:28:40.643Z,994.87
2023-02-19T03:29:40.941Z,994.86
2023-02-19T03:30:40.628Z,994.84
2023-02-19T03:31:40.721Z,994.83
2023-02-19T03:32:40.603Z,994.83
2023-02-19T03:33:40.613Z,994.83
2023-02-19T03:34:41.350Z,994.85
2023-02-19T03:35:40.580Z,994.84
2023-02-19T03:36:40.565Z,994.82
2023-02-19T03:37:40.562Z,994.84
2023-02-19T03:38:40.566Z,994.86
2023-02-19T03:39:41.281Z,994.86
2023-02-19T03:40:40.528Z,994.88
2023-02-19T03:41:40.534Z,994.88
2023-02-19T03:42:40.514Z,994.90
2023-02-19T03:43:40.506Z,994.92
2023-02-19T03:44:40.855Z,994.91
2023-02-19T03:45:40.491Z,994.92
2023-02-19T03:46:40.464Z,994.96
2023-02-19T03:47:40.466Z,994.98
2023-02-19T03:48:40.456Z,994.99
2023-02-19T03:49:40.850Z,995.06
2023-02-19T03:50:40.429Z,995.05
2023-02-19T03:51:40.425Z,995.04
2023-02-19T03:52:40.411Z,995.05
2023-02-19T03:53:40.407Z,995.09
2023-02-19T03:54:40.710Z,995.05
2023-02-19T03:55:40.400Z,995.10
2023-02-19T03:56:40.372Z,995.06
2023-02-19T03:57:40.373Z,995.10
2023-02-19T03:58:40.350Z,995.23
2023-02-19T03:59:41.100Z,995.11
2023-02-19T04:00:40.341Z,995.25
2023-02-19T04:01:40.331Z,995.20
2023-02-19T04:02:40.314Z,995.28
2023-02-19T04:03:40.317Z,995.26
2023-02-19T04:04:40.638Z,995.25
2023-02-19T04:05:40.295Z,995.28
2023-02-19T04:06:40.276Z,995.30
2023-02-19T04:07:40.283Z,995.30
2023-02-19T04:08:40.264Z,995.28
2023-02-19T04:09:41.096Z,995.28
2023-02-19T04:10:40.243Z,995.29
2023-02-19T04:11:40.266Z,995.30
2023-02-19T04:12:40.223Z,995.28
2023-02-19T04:13:40.215Z,995.31
2023-02-19T04:14:40.512Z,995.32
2023-02-19T04:15:40.193Z,995.30
2023-02-19T04:16:40.257Z,995.30
2023-02-19T04:17:40.173Z,995.34
2023-02-19T04:18:40.167Z,995.37
2023-02-19T04:19:40.909Z,995.38
2023-02-19T04:20:40.154Z,995.39
2023-02-19T04:21:40.135Z,995.37
2023-02-19T04:22:40.138Z,995.39
2023-02-19T04:23:40.117Z,995.36
2023-02-19T04:24:40.482Z,995.34
2023-02-19T04:25:40.097Z,995.35
2023-02-19T04:26:40.116Z,995.34
2023-02-19T04:27:40.098Z,995.36
2023-02-19T04:28:40.072Z,995.35
2023-02-19T04:29:40.797Z,995.37
2023-02-19T04:30:40.238Z,995.41
2023-02-19T04:31:40.076Z,995.40
2023-02-19T04:32:40.033Z,995.43
2023-02-19T04:33:40.038Z,995.44
2023-02-19T04:34:40.299Z,995.45
2023-02-19T04:35:40.033Z,995.41
2023-02-19T04:36:40.000Z,995.42
2023-02-19T04:37:39.979Z,995.43
2023-02-19T04:38:39.972Z,995.46
2023-02-19T04:39:40.763Z,995.49
2023-02-19T04:40:39.952Z,995.51
2023-02-19T04:41:39.941Z,995.57
2023-02-19T04:42:39.929Z,995.60
2023-02-19T04:43:39.919Z,995.61
2023-02-19T04:44:40.230Z,995.66
2023-02-19T04:45:39.901Z,995.67
2023-02-19T04:46:42.732Z,995.65
2023-02-19T04:47:39.877Z,995.63
2023-02-19T04:48:39.870Z,995.68
2023-02-19T04:49:40.670Z,995.68
2023-02-19T04:50:39.851Z,995.70
2023-02-19T04:51:39.833Z,995.70
2023-02-19T04:52:39.839Z,995.73
2023-02-19T04:53:39.828Z,995.73
2023-02-19T04:54:40.250Z,995.72
2023-02-19T04:55:39.793Z,995.68
2023-02-19T04:56:39.807Z,995.70
2023-02-19T04:57:39.785Z,995.73
2023-02-19T04:58:39.772Z,995.73
2023-02-19T04:59:40.456Z,995.78
2023-02-19T05:00:39.748Z,995.83
2023-02-19T05:01:39.859Z,995.75
2023-02-19T05:02:39.728Z,995.79
2023-02-19T05:03:39.725Z,995.79
2023-02-19T05:04:39.735Z,995.77
2023-02-19T05:05:39.699Z,995.74
2023-02-19T05:06:39.687Z,995.70
2023-02-19T05:07:39.679Z,995.71
2023-02-19T05:08:39.673Z,995.71
2023-02-19T05:09:39.658Z,995.76
2023-02-19T05:10:39.667Z,995.76
2023-02-19T05:11:39.656Z,995.82
2023-02-19T05:12:39.632Z,995.82
2023-02-19T05:13:39.788Z,995.81
2023-02-19T05:14:39.607Z,995.80
2023-02-19T05:15:39.651Z,995.89
2023-02-19T05:16:39.621Z,995.89
2023-02-19T05:17:39.570Z,995.94
2023-02-19T05:18:39.568Z,995.97
2023-02-19T05:19:39.559Z,995.95
2023-02-19T05:20:39.554Z,995.96
2023-02-19T05:21:39.536Z,995.99
2023-02-19T05:22:39.529Z,996.06
2023-02-19T05:23:39.529Z,996.05
2023-02-19T05:24:39.523Z,996.09
2023-02-19T05:25:39.839Z,996.08
2023-02-19T05:26:39.493Z,996.12
2023-02-19T05:27:39.468Z,996.09
2023-02-19T05:28:39.479Z,996.12
2023-02-19T05:29:39.446Z,996.12
2023-02-19T05:30:39.783Z,996.16
2023-02-19T05:31:39.544Z,996.16
2023-02-19T05:32:39.439Z,996.15
2023-02-19T05:33:39.418Z,996.18
2023-02-19T05:34:39.406Z,996.17
2023-02-19T05:35:40.162Z,996.20
2023-02-19T05:36:39.388Z,996.23
2023-02-19T05:37:39.376Z,996.24
2023-02-19T05:38:39.379Z,996.26
2023-02-19T05:39:39.360Z,996.23
2023-02-19T05:40:40.142Z,996.26
2023-02-19T05:41:39.335Z,996.28
2023-02-19T05:42:39.338Z,996.31
2023-02-19T05:43:39.314Z,996.32
2023-02-19T05:44:39.316Z,996.30
2023-02-19T05:45:39.612Z,996.30
2023-02-19T05:46:39.403Z,996.29
2023-02-19T05:47:39.267Z,996.30
2023-02-19T05:48:39.265Z,996.33
2023-02-19T05:49:39.244Z,996.40
2023-02-19T05:50:40.046Z,996.36
2023-02-19T05:51:39.247Z,996.42
2023-02-19T05:52:39.252Z,996.38
2023-02-19T05:53:39.210Z,996.38
2023-02-19T05:54:39.197Z,996.42
2023-02-19T05:55:39.546Z,996.44
2023-02-19T05:56:39.193Z,996.45
2023-02-19T05:57:39.910Z,996.45
2023-02-19T05:58:39.159Z,996.45
2023-02-19T05:59:39.149Z,996.46
2023-02-19T06:00:39.524Z,996.44
2023-02-19T06:01:39.132Z,996.47
2023-02-19T06:02:39.147Z,996.45
2023-02-19T06:03:39.150Z,996.49
2023-02-19T06:04:39.043Z,996.50
2023-02-19T06:05:39.384Z,996.49
2023-02-19T06:06:39.040Z,996.51
2023-02-19T06:07:39.073Z,996.51
2023-02-19T06:08:39.029Z,996.51
2023-02-19T06:09:38.999Z,996.53
2023-02-19T06:10:39.873Z,996.54
2023-02-19T06:11:38.984Z,996.54
2023-02-19T06:12:38.965Z,996.56
2023-02-19T06:13:38.964Z,996.60
2023-02-19T06:14:38.950Z,996.64
2023-02-19T06:15:38.962Z,996.64
2023-02-19T06:16:38.933Z,996.63
2023-02-19T06:17:38.942Z,996.67
2023-02-19T06:18:38.906Z,996.69
2023-02-19T06:19:38.902Z,996.71
2023-02-19T06:20:39.587Z,996.74
2023-02-19T06:21:38.869Z,996.75
2023-02-19T06:22:38.863Z,996.76
2023-02-19T06:23:38.847Z,996.80
2023-02-19T06:24:38.850Z,996.79
2023-02-19T06:25:39.213Z,996.79
2023-02-19T06:26:38.822Z,996.82
2023-02-19T06:27:38.805Z,996.83
2023-02-19T06:28:38.814Z,996.87
2023-02-19T06:29:38.793Z,996.88
2023-02-19T06:30:39.538Z,996.85
2023-02-19T06:31:38.914Z,996.89
2023-02-19T06:32:38.765Z,996.85
2023-02-19T06:33:38.746Z,996.90
2023-02-19T06:34:38.750Z,996.91
2023-02-19T06:35:39.527Z,996.89
2023-02-19T06:36:38.722Z,996.88
2023-02-19T06:37:38.731Z,996.93
2023-02-19T06:38:38.718Z,996.92
2023-02-19T06:39:38.693Z,996.93
2023-02-19T06:40:39.507Z,996.98
2023-02-19T06:41:38.668Z,997.02
2023-02-19T06:42:38.662Z,997.02
2023-02-19T06:43:38.662Z,997.04
2023-02-19T06:44:38.643Z,997.07
2023-02-19T06:45:38.990Z,997.10
2023-02-19T06:46:38.655Z,997.10
2023-02-19T06:47:38.614Z,997.14
2023-02-19T06:48:38.611Z,997.13
2023-02-19T06:49:38.589Z,997.15
2023-02-19T06:50:39.311Z,997.14
2023-02-19T06:51:38.574Z,997.17
2023-02-19T06:52:38.596Z,997.18
2023-02-19T06:53:38.553Z,997.14
2023-02-19T06:54:38.570Z,997.19
2023-02-19T06:55:38.546Z,997.17
2023-02-19T06:56:38.528Z,997.17
2023-02-19T06:57:38.512Z,997.21
2023-02-19T06:58:38.511Z,997.22
2023-02-19T06:59:38.503Z,997.27
2023-02-19T07:00:38.516Z,997.30
2023-02-19T07:01:38.486Z,997.35
2023-02-19T07:02:38.472Z,997.39
2023-02-19T07:03:38.460Z,997.38
2023-02-19T07:04:38.439Z,997.42
2023-02-19T07:05:38.954Z,997.41
2023-02-19T07:06:38.422Z,997.45
2023-02-19T07:07:38.405Z,997.43
2023-02-19T07:08:38.409Z,997.43
2023-02-19T07:09:38.382Z,997.46
2023-02-19T07:10:38.726Z,997.45
2023-02-19T07:11:38.379Z,997.47
2023-02-19T07:12:38.361Z,997.50
2023-02-19T07:13:38.343Z,997.52
2023-02-19T07:14:38.334Z,997.50
2023-02-19T07:15:38.337Z,997.51
2023-02-19T07:16:38.385Z,997.56
2023-02-19T07:17:38.311Z,997.57
2023-02-19T07:18:38.302Z,997.55
2023-02-19T07:19:38.284Z,997.54
2023-02-19T07:20:38.296Z,997.62
2023-02-19T07:21:38.275Z,997.62
2023-02-19T07:22:38.253Z,997.63
2023-02-19T07:23:38.251Z,997.67
2023-02-19T07:24:38.259Z,997.66
2023-02-19T07:25:38.532Z,997.69
2023-02-19T07:26:38.263Z,997.69
2023-02-19T07:27:38.212Z,997.74
2023-02-19T07:28:38.196Z,997.75
2023-02-19T07:29:38.216Z,997.80
2023-02-19T07:30:38.669Z,997.84
2023-02-19T07:31:38.272Z,997.87
2023-02-19T07:32:38.169Z,997.85
2023-02-19T07:33:38.157Z,997.88
2023-02-19T07:34:38.139Z,997.89
2023-02-19T07:35:38.137Z,997.93
2023-02-19T07:36:38.151Z,997.95
2023-02-19T07:37:38.105Z,997.97
2023-02-19T07:38:38.101Z,997.99
2023-02-19T07:39:38.077Z,998.03
2023-02-19T07:40:38.083Z,998.07
2023-02-19T07:41:38.065Z,998.06
2023-02-19T07:42:38.073Z,998.06
2023-02-19T07:43:38.050Z,998.14
2023-02-19T07:44:38.048Z,998.12
2023-02-19T07:45:38.044Z,998.14
2023-02-19T07:46:38.018Z,998.08
2023-02-19T07:47:38.009Z,998.11
2023-02-19T07:48:38.004Z,998.16
2023-02-19T07:49:37.998Z,998.19
2023-02-19T07:50:38.749Z,998.17
2023-02-19T07:51:37.976Z,998.16
2023-02-19T07:52:37.964Z,998.19
2023-02-19T07:53:37.967Z,998.26
2023-02-19T07:54:37.950Z,998.25
2023-02-19T07:55:38.254Z,998.29
2023-02-19T07:56:37.954Z,998.30
2023-02-19T07:57:37.946Z,998.31
2023-02-19T07:58:37.906Z,998.32
2023-02-19T07:59:37.890Z,998.38
2023-02-19T08:00:38.182Z,998.36
2023-02-19T08:01:37.866Z,998.43
2023-02-19T08:02:37.885Z,998.42
2023-02-19T08:03:37.886Z,998.46
2023-02-19T08:04:37.843Z,998.48
2023-02-19T08:05:37.827Z,998.50
2023-02-19T08:06:37.831Z,998.49
2023-02-19T08:07:37.807Z,998.53
2023-02-19T08:08:37.799Z,998.56
2023-02-19T08:09:37.783Z,998.61
2023-02-19T08:10:37.782Z,998.59
2023-02-19T08:11:37.774Z,998.62
2023-02-19T08:12:37.756Z,998.63
2023-02-19T08:13:37.755Z,998.67
2023-02-19T08:14:37.738Z,998.65
2023-02-19T08:15:37.721Z,998.68
2023-02-19T08:16:43.259Z,998.68
2023-02-19T08:17:37.713Z,998.68
2023-02-19T08:18:37.697Z,998.70
2023-02-19T08:19:37.686Z,998.69
2023-02-19T08:20:37.670Z,998.72
2023-02-19T08:21:37.682Z,998.73
2023-02-19T08:22:37.652Z,998.74
2023-02-19T08:23:37.646Z,998.77
2023-02-19T08:24:37.631Z,998.77
2023-02-19T08:25:37.629Z,998.79
2023-02-19T08:26:37.625Z,998.80
2023-02-19T08:27:37.608Z,998.82
2023-02-19T08:28:37.590Z,998.84
2023-02-19T08:29:37.595Z,998.85
2023-02-19T08:30:37.745Z,998.87
2023-02-19T08:31:37.736Z,998.85
2023-02-19T08:32:38.122Z,998.84
2023-02-19T08:33:37.545Z,998.84
2023-02-19T08:34:37.524Z,998.84
2023-02-19T08:35:37.538Z,998.90
2023-02-19T08:36:37.512Z,998.90
2023-02-19T08:37:37.514Z,998.90
2023-02-19T08:38:37.494Z,998.91
2023-02-19T08:39:37.484Z,998.92
2023-02-19T08:40:37.471Z,998.94
2023-02-19T08:41:37.488Z,998.96
2023-02-19T08:42:37.448Z,998.94
2023-02-19T08:43:37.445Z,998.97
2023-02-19T08:44:37.422Z,998.96
2023-02-19T08:45:37.422Z,998.94
2023-02-19T08:46:37.412Z,998.98
2023-02-19T08:47:37.403Z,998.96
2023-02-19T08:48:37.394Z,998.96
2023-02-19T08:49:37.382Z,998.93
2023-02-19T08:50:37.366Z,998.93
2023-02-19T08:51:37.369Z,998.92
2023-02-19T08:52:37.364Z,998.93
2023-02-19T08:53:37.363Z,998.94
2023-02-19T08:54:37.406Z,998.93
2023-02-19T08:55:37.319Z,998.96
2023-02-19T08:56:37.331Z,998.96
2023-02-19T08:57:37.314Z,998.97
2023-02-19T08:58:37.314Z,998.98
2023-02-19T08:59:37.285Z,999.04
2023-02-19T09:00:37.273Z,999.23
2023-02-19T09:01:37.471Z,999.43
2023-02-19T09:02:37.252Z,999.36
2023-02-19T09:03:37.251Z,999.43
2023-02-19T09:04:37.231Z,999.46
2023-02-19T09:05:37.218Z,999.58
2023-02-19T09:06:39.802Z,999.52
2023-02-19T09:07:37.203Z,999.57
2023-02-19T09:08:37.195Z,999.65
2023-02-19T09:09:37.184Z,999.66
2023-02-19T09:10:37.172Z,999.63
2023-02-19T09:11:37.383Z,999.68
2023-02-19T09:12:37.157Z,999.65
2023-02-19T09:13:37.165Z,999.65
2023-02-19T09:14:37.133Z,999.67
2023-02-19T09:15:37.140Z,999.67
2023-02-19T09:16:37.436Z,999.66
2023-02-19T09:17:37.112Z,999.72
2023-02-19T09:18:37.115Z,999.71
2023-02-19T09:19:37.090Z,999.75
2023-02-19T09:20:37.066Z,999.78
2023-02-19T09:21:37.381Z,999.80
2023-02-19T09:22:37.048Z,999.81
2023-02-19T09:23:37.042Z,999.85
2023-02-19T09:24:37.031Z,999.82
2023-02-19T09:25:37.021Z,999.82
2023-02-19T09:26:38.595Z,999.79
2023-02-19T09:27:37.011Z,999.82
2023-02-19T09:28:36.988Z,999.85
2023-02-19T09:29:36.988Z,999.93
2023-02-19T09:30:37.030Z,999.97
2023-02-19T09:31:37.499Z,1000.04
2023-02-19T09:32:36.955Z,1000.01
2023-02-19T09:33:36.950Z,999.99
2023-02-19T09:34:36.924Z,1000.07
2023-02-19T09:35:36.925Z,1000.09
2023-02-19T09:36:36.927Z,1000.10
2023-02-19T09:37:36.897Z,1000.16
2023-02-19T09:38:36.921Z,1000.20
2023-02-19T09:39:36.897Z,1000.24
2023-02-19T09:40:36.882Z,1000.29
2023-02-19T09:41:37.121Z,1000.33
2023-02-19T09:42:36.849Z,1000.37
2023-02-19T09:43:36.836Z,1000.38
2023-02-19T09:44:36.826Z,1000.39
2023-02-19T09:45:36.819Z,1000.40
2023-02-19T09:46:36.823Z,1000.42
2023-02-19T09:47:36.805Z,1000.45
2023-02-19T09:48:36.811Z,1000.48
2023-02-19T09:49:36.775Z,1000.51
2023-02-19T09:50:36.774Z,1000.52
2023-02-19T09:51:36.776Z,1000.54
2023-02-19T09:52:36.746Z,1000.55
2023-02-19T09:53:36.735Z,1000.54
2023-02-19T09:54:36.723Z,1000.56
2023-02-19T09:55:36.713Z,1000.57
2023-02-19T09:56:37.000Z,1000.59
2023-02-19T09:57:36.709Z,1000.61
2023-02-19T09:58:36.676Z,1000.61
2023-02-19T09:59:36.675Z,1000.62
2023-02-19T10:00:36.655Z,1000.61
2023-02-19T10:01:37.145Z,1000.63
2023-02-19T10:02:36.647Z,1000.68
2023-02-19T10:03:36.627Z,1000.72
2023-02-19T10:04:36.608Z,1000.72
2023-02-19T10:05:36.606Z,1000.74
2023-02-19T10:06:36.915Z,1000.78
2023-02-19T10:07:36.584Z,1000.83
2023-02-19T10:08:36.567Z,1000.87
2023-02-19T10:09:36.567Z,1000.86
2023-02-19T10:10:36.561Z,1000.88
2023-02-19T10:11:36.559Z,1000.88
2023-02-19T10:12:36.530Z,1000.87
2023-02-19T10:13:36.571Z,1000.88
2023-02-19T10:14:36.515Z,1000.90
2023-02-19T10:15:36.521Z,1000.92
2023-02-19T10:16:36.507Z,1000.97
2023-02-19T10:17:36.481Z,1001.01
2023-02-19T10:18:36.462Z,1001.05
2023-02-19T10:19:36.461Z,1001.09
2023-02-19T10:20:36.445Z,1001.08
2023-02-19T10:21:36.863Z,1001.10
2023-02-19T10:22:36.420Z,1001.10
2023-02-19T10:23:36.419Z,1001.10
2023-02-19T10:24:38.416Z,1001.13
2023-02-19T10:25:36.401Z,1001.16
2023-02-19T10:26:36.397Z,1001.19
2023-02-19T10:27:36.370Z,1001.20
2023-02-19T10:28:36.361Z,1001.19
2023-02-19T10:29:36.354Z,1001.20
2023-02-19T10:30:36.406Z,1001.22
2023-02-19T10:31:36.741Z,1001.22
2023-02-19T10:32:36.326Z,1001.24
2023-02-19T10:33:36.315Z,1001.28
2023-02-19T10:34:36.304Z,1001.31
2023-02-19T10:35:36.296Z,1001.33
2023-02-19T10:36:36.319Z,1001.32
2023-02-19T10:37:36.272Z,1001.30
2023-02-19T10:38:36.262Z,1001.32
2023-02-19T10:39:36.251Z,1001.33
2023-02-19T10:40:36.239Z,1001.36
2023-02-19T10:41:36.245Z,1001.42
2023-02-19T10:42:36.230Z,1001.45
2023-02-19T10:43:36.216Z,1001.47
2023-02-19T10:44:36.191Z,1001.50
2023-02-19T10:45:36.196Z,1001.54
2023-02-19T10:46:36.210Z,1001.55
2023-02-19T10:47:36.165Z,1001.58
2023-02-19T10:48:36.150Z,1001.58
2023-02-19T10:49:36.162Z,1001.62
2023-02-19T10:50:36.128Z,1001.64
2023-02-19T10:51:36.144Z,1001.67
2023-02-19T10:52:36.151Z,1001.70
2023-02-19T10:53:36.101Z,1001.71
2023-02-19T10:54:36.102Z,1001.73
2023-02-19T10:55:37.918Z,1001.72
2023-02-19T10:56:36.260Z,1001.72
2023-02-19T10:57:36.077Z,1001.75
2023-02-19T10:58:36.052Z,1001.78
2023-02-19T10:59:36.045Z,1001.80
2023-02-19T11:00:36.027Z,1001.83
2023-02-19T11:01:37.066Z,1001.81
2023-02-19T11:02:36.007Z,1001.80
2023-02-19T11:03:36.028Z,1001.82
2023-02-19T11:04:36.049Z,1001.84
2023-02-19T11:05:35.984Z,1001.87
2023-02-19T11:06:35.963Z,1001.92
2023-02-19T11:07:35.973Z,1001.95
2023-02-19T11:08:35.943Z,1001.96
2023-02-19T11:09:35.940Z,1001.97
2023-02-19T11:10:35.920Z,1001.97
2023-02-19T11:11:35.922Z,1001.98
2023-02-19T11:12:35.914Z,1001.97
2023-02-19T11:13:35.904Z,1001.92
2023-02-19T11:14:35.945Z,1001.90
2023-02-19T11:15:35.886Z,1001.89
2023-02-19T11:16:35.908Z,1001.91
2023-02-19T11:17:35.927Z,1001.94
2023-02-19T11:18:35.858Z,1001.98
2023-02-19T11:19:35.835Z,1001.98
2023-02-19T11:20:35.818Z,1001.97
2023-02-19T11:21:35.815Z,1001.96
2023-02-19T11:22:35.981Z,1001.94
2023-02-19T11:23:35.798Z,1001.95
2023-02-19T11:24:35.811Z,1001.96
2023-02-19T11:25:35.793Z,1001.97
2023-02-19T11:26:35.753Z,1002.02
2023-02-19T11:27:35.760Z,1002.00
2023-02-19T11:28:35.742Z,1001.96
2023-02-19T11:29:35.734Z,1001.95
2023-02-19T11:30:36.502Z,1001.95
2023-02-19T11:31:35.818Z,1001.94
2023-02-19T11:32:35.844Z,1001.96
2023-02-19T11:33:35.689Z,1001.98
2023-02-19T11:34:35.696Z,1002.00
2023-02-19T11:35:35.673Z,1002.01
2023-02-19T11:36:35.686Z,1002.03
2023-02-19T11:37:35.694Z,1002.03
2023-02-19T11:38:35.635Z,1002.02
2023-02-19T11:39:35.665Z,1002.05
2023-02-19T11:40:35.630Z,1002.08
2023-02-19T11:41:35.621Z,1002.10
2023-02-19T11:42:36.381Z,1002.11
2023-02-19T11:43:35.613Z,1002.11
2023-02-19T11:44:35.602Z,1002.13
2023-02-19T11:45:35.603Z,1002.14
2023-02-19T11:46:35.624Z,1002.17
2023-02-19T11:47:35.938Z,1002.19
2023-02-19T11:48:35.532Z,1002.18
2023-02-19T11:49:35.533Z,1002.18
2023-02-19T11:50:35.525Z,1002.20
2023-02-19T11:51:35.538Z,1002.21
2023-02-19T11:52:35.850Z,1002.24
2023-02-19T11:53:35.495Z,1002.25
2023-02-19T11:54:35.500Z,1002.26
2023-02-19T11:55:35.476Z,1002.25
2023-02-19T11:56:35.474Z,1002.24
2023-02-19T11:57:35.889Z,1002.24
2023-02-19T11:58:35.454Z,1002.24
2023-02-19T11:59:35.429Z,1002.26
2023-02-19T12:00:35.437Z,1002.27
2023-02-19T12:01:35.529Z,1002.26
2023-02-19T12:02:35.733Z,1002.25
2023-02-19T12:03:35.472Z,1002.27
2023-02-19T12:04:37.689Z,1002.27
2023-02-19T12:05:35.370Z,1002.26
2023-02-19T12:06:35.351Z,1002.26
2023-02-19T12:07:35.357Z,1002.26
2023-02-19T12:08:35.350Z,1002.25
2023-02-19T12:09:35.327Z,1002.23
2023-02-19T12:10:35.306Z,1002.22
2023-02-19T12:11:35.298Z,1002.22
2023-02-19T12:12:37.713Z,1002.21
2023-02-19T12:13:35.279Z,1002.19
2023-02-19T12:14:35.292Z,1002.16
2023-02-19T12:15:35.281Z,1002.15
2023-02-19T12:16:35.298Z,1002.14
2023-02-19T12:17:35.566Z,1002.16
2023-02-19T12:18:35.222Z,1002.15
2023-02-19T12:19:35.274Z,1002.14
2023-02-19T12:20:35.198Z,1002.13
2023-02-19T12:21:35.239Z,1002.13
2023-02-19T12:22:35.203Z,1002.14
2023-02-19T12:23:35.176Z,1002.16